sensor_id;sensor_type;location;lat;lon;timestamp;pressure;altitude;pressure_sealevel;temperature;humidity
46614;BME280;32338;50.430;6.806;2022-12-18T00:02:06;64287.66;;;-10.56;100.00
46614;BME280;32338;50.430;6.806;2022-12-18T00:04:33;64298.78;;;-10.50;100.00
46614;BME280;32338;50.430;6.806;2022-12-18T00:06:59;64295.63;;;-10.46;100.00
46614;BME280;32338;50.430;6.806;2022-12-18T00:09:26;64303.97;;;-10.43;100.00
46614;BME280;32338;50.430;6.806;2022-12-18T00:11:53;64296.50;;;-10.48;100.00
46614;BME280;32338;50.430;6.806;2022-12-18T00:14:19;64295.16;;;-10.51;100.00
46614;BME280;32338;50.430;6.806;2022-12-18T00:16:50;64295.16;;;-10.51;100.00
46614;BME280;32338;50.430;6.806;2022-12-18T00:19:17;64286.22;;;-10.55;100.00
46614;BME280;32338;50.430;6.806;2022-12-18T00:21:44;64284.00;;;-10.57;100.00
46614;BME280;32338;50.430;6.806;2022-12-18T00:24:11;64287.44;;;-10.58;100.00
46614;BME280;32338;50.430;6.806;2022-12-18T00:26:38;64289.75;;;-10.49;100.00
46614;BME280;32338;50.430;6.806;2022-12-18T00:29:07;64312.38;;;-10.28;100.00
46614;BME280;32338;50.430;6.806;2022-12-18T00:31:34;64313.81;;;-10.29;100.00
46614;BME280;32338;50.430;6.806;2022-12-18T00:34:02;64310.06;;;-10.37;100.00
46614;BME280;32338;50.430;6.806;2022-12-18T00:36:31;64280.94;;;-10.57;100.00
46614;BME280;32338;50.430;6.806;2022-12-18T00:38:59;64286.22;;;-10.55;100.00
46614;BME280;32338;50.430;6.806;2022-12-18T00:41:27;64272.09;;;-10.66;100.00
46614;BME280;32338;50.430;6.806;2022-12-18T00:44:14;64275.75;;;-10.65;100.00
46614;BME280;32338;50.430;6.806;2022-12-18T00:46:42;64277.94;;;-10.63;100.00
46614;BME280;32338;50.430;6.806;2022-12-18T00:49:13;64273.28;;;-10.69;100.00
46614;BME280;32338;50.430;6.806;2022-12-18T00:51:40;64257.84;;;-10.84;100.00
46614;BME280;32338;50.430;6.806;2022-12-18T00:54:07;64253.09;;;-10.86;100.00
46614;BME280;32338;50.430;6.806;2022-12-18T00:56:35;64252.34;;;-10.89;100.00
46614;BME280;32338;50.430;6.806;2022-12-18T00:59:02;64251.78;;;-10.89;100.00
46614;BME280;32338;50.430;6.806;2022-12-18T01:01:29;64253.09;;;-10.86;100.00
46614;BME280;32338;50.430;6.806;2022-12-18T01:03:56;64259.50;;;-10.82;100.00
46614;BME280;32338;50.430;6.806;2022-12-18T01:06:25;64248.13;;;-10.90;100.00
46614;BME280;32338;50.430;6.806;2022-12-18T01:08:51;64246.78;;;-10.94;100.00
46614;BME280;32338;50.430;6.806;2022-12-18T01:11:19;64255.88;;;-10.83;100.00
46614;BME280;32338;50.430;6.806;2022-12-18T01:13:47;64266.66;;;-10.76;100.00
46614;BME280;32338;50.430;6.806;2022-12-18T01:16:14;64258.16;;;-10.86;100.00
46614;BME280;32338;50.430;6.806;2022-12-18T01:18:42;64260.59;;;-10.81;100.00
46614;BME280;32338;50.430;6.806;2022-12-18T01:21:09;64266.91;;;-10.73;100.00
46614;BME280;32338;50.430;6.806;2022-12-18T01:23:38;64259.81;;;-10.84;100.00
46614;BME280;32338;50.430;6.806;2022-12-18T01:26:06;64257.84;;;-10.84;100.00
46614;BME280;32338;50.430;6.806;2022-12-18T01:28:32;64267.47;;;-10.72;100.00
46614;BME280;32338;50.430;6.806;2022-12-18T01:31:10;64260.38;;;-10.84;100.00
46614;BME280;32338;50.430;6.806;2022-12-18T01:33:37;64247.03;;;-10.92;100.00
46614;BME280;32338;50.430;6.806;2022-12-18T01:36:04;64239.53;;;-10.96;100.00
46614;BME280;32338;50.430;6.806;2022-12-18T01:38:31;64254.31;;;-10.89;100.00
46614;BME280;32338;50.430;6.806;2022-12-18T01:40:59;64226.06;;;-11.11;100.00
46614;BME280;32338;50.430;6.806;2022-12-18T01:43:41;64215.56;;;-11.21;100.00
46614;BME280;32338;50.430;6.806;2022-12-18T01:46:08;64213.38;;;-11.23;100.00
46614;BME280;32338;50.430;6.806;2022-12-18T01:48:35;64215.56;;;-11.21;100.00
46614;BME280;32338;50.430;6.806;2022-12-18T01:51:02;64228.81;;;-11.09;100.00
46614;BME280;32338;50.430;6.806;2022-12-18T01:53:30;64234.13;;;-11.06;100.00
46614;BME280;32338;50.430;6.806;2022-12-18T01:55:59;64229.13;;;-11.11;100.00
46614;BME280;32338;50.430;6.806;2022-12-18T01:58:32;64247.69;;;-10.96;100.00
46614;BME280;32338;50.430;6.806;2022-12-18T02:01:01;64234.88;;;-11.03;100.00
46614;BME280;32338;50.430;6.806;2022-12-18T02:03:28;64239.09;;;-11.01;100.00
46614;BME280;32338;50.430;6.806;2022-12-18T02:06:01;64236.88;;;-11.03;100.00
46614;BME280;32338;50.430;6.806;2022-12-18T02:08:33;64219.13;;;-11.15;100.00
46614;BME280;32338;50.430;6.806;2022-12-18T02:11:06;64209.28;;;-11.29;100.00
46614;BME280;32338;50.430;6.806;2022-12-18T02:13:39;64197.13;;;-11.41;100.00
46614;BME280;32338;50.430;6.806;2022-12-18T02:16:12;64198.47;;;-11.37;100.00
46614;BME280;32338;50.430;6.806;2022-12-18T02:18:43;64183.28;;;-11.49;100.00
46614;BME280;32338;50.430;6.806;2022-12-18T02:21:19;64192.09;;;-11.41;100.00
46614;BME280;32338;50.430;6.806;2022-12-18T02:23:55;64203.00;;;-11.37;100.00
46614;BME280;32338;50.430;6.806;2022-12-18T02:26:27;64190.53;;;-11.47;100.00
46614;BME280;32338;50.430;6.806;2022-12-18T02:28:59;64197.69;;;-11.40;100.00
46614;BME280;32338;50.430;6.806;2022-12-18T02:31:28;64191.00;;;-11.42;100.00
46614;BME280;32338;50.430;6.806;2022-12-18T02:33:59;64196.81;;;-11.38;100.00
46614;BME280;32338;50.430;6.806;2022-12-18T02:36:27;64206.19;;;-11.30;100.00
46614;BME280;32338;50.430;6.806;2022-12-18T02:38:56;64205.97;;;-11.32;100.00
46614;BME280;32338;50.430;6.806;2022-12-18T02:41:26;64221.53;;;-11.22;100.00
46614;BME280;32338;50.430;6.806;2022-12-18T02:43:56;64205.66;;;-11.30;100.00
46614;BME280;32338;50.430;6.806;2022-12-18T02:46:30;64193.53;;;-11.42;100.00
46614;BME280;32338;50.430;6.806;2022-12-18T02:49:05;64189.09;;;-11.46;100.00
46614;BME280;32338;50.430;6.806;2022-12-18T02:51:38;64186.34;;;-11.48;100.00
46614;BME280;32338;50.430;6.806;2022-12-18T02:54:10;64190.19;;;-11.45;100.00
46614;BME280;32338;50.430;6.806;2022-12-18T02:56:46;64210.16;;;-11.31;100.00
46614;BME280;32338;50.430;6.806;2022-12-18T02:59:19;64193.41;;;-11.37;100.00
46614;BME280;32338;50.430;6.806;2022-12-18T03:01:53;64202.56;;;-11.31;100.00
46614;BME280;32338;50.430;6.806;2022-12-18T03:04:26;64210.38;;;-11.28;100.00
46614;BME280;32338;50.430;6.806;2022-12-18T03:06:56;64213.38;;;-11.23;100.00
46614;BME280;32338;50.430;6.806;2022-12-18T03:09:29;64210.28;;;-11.23;100.00
46614;BME280;32338;50.430;6.806;2022-12-18T03:12:10;64201.56;;;-11.36;100.00
46614;BME280;32338;50.430;6.806;2022-12-18T03:14:56;64195.19;;;-11.40;100.00
46614;BME280;32338;50.430;6.806;2022-12-18T03:17:27;64190.84;;;-11.49;100.00
46614;BME280;32338;50.430;6.806;2022-12-18T03:19:56;64176.97;;;-11.57;100.00
46614;BME280;32338;50.430;6.806;2022-12-18T03:22:27;64172.88;;;-11.63;100.00
46614;BME280;32338;50.430;6.806;2022-12-18T03:24:56;64178.06;;;-11.56;100.00
46614;BME280;32338;50.430;6.806;2022-12-18T03:27:27;64166.94;;;-11.62;100.00
46614;BME280;32338;50.430;6.806;2022-12-18T03:30:01;64187.22;;;-11.50;100.00
46614;BME280;32338;50.430;6.806;2022-12-18T03:32:36;64176.66;;;-11.55;100.00
46614;BME280;32338;50.430;6.806;2022-12-18T03:35:07;64178.84;;;-11.53;100.00
46614;BME280;32338;50.430;6.806;2022-12-18T03:37:34;64170.03;;;-11.61;100.00
46614;BME280;32338;50.430;6.806;2022-12-18T03:40:02;64167.34;;;-11.68;100.00
46614;BME280;32338;50.430;6.806;2022-12-18T03:42:32;64177.84;;;-11.59;100.00
46614;BME280;32338;50.430;6.806;2022-12-18T03:45:08;64167.91;;;-11.68;100.00
46614;BME280;32338;50.430;6.806;2022-12-18T03:47:39;64173.97;;;-11.62;100.00
46614;BME280;32338;50.430;6.806;2022-12-18T03:50:14;64164.28;;;-11.69;100.00
46614;BME280;32338;50.430;6.806;2022-12-18T03:52:46;64158.22;;;-11.75;100.00
46614;BME280;32338;50.430;6.806;2022-12-18T03:55:15;64154.13;;;-11.81;100.00
46614;BME280;32338;50.430;6.806;2022-12-18T03:57:45;64159.31;;;-11.74;100.00
46614;BME280;32338;50.430;6.806;2022-12-18T04:00:16;64163.50;;;-11.72;100.00
46614;BME280;32338;50.430;6.806;2022-12-18T04:02:47;64150.81;;;-11.84;100.00
46614;BME280;32338;50.430;6.806;2022-12-18T04:05:15;64141.13;;;-11.91;100.00
46614;BME280;32338;50.430;6.806;2022-12-18T04:07:45;64133.97;;;-11.97;100.00
46614;BME280;32338;50.430;6.806;2022-12-18T04:10:14;64141.22;;;-11.95;100.00
46614;BME280;32338;50.430;6.806;2022-12-18T04:12:42;64151.94;;;-11.83;100.00
46614;BME280;32338;50.430;6.806;2022-12-18T04:15:11;64140.56;;;-11.91;100.00
46614;BME280;32338;50.430;6.806;2022-12-18T04:17:38;64151.38;;;-11.83;100.00
46614;BME280;32338;50.430;6.806;2022-12-18T04:20:09;64154.69;;;-11.80;100.00
46614;BME280;32338;50.430;6.806;2022-12-18T04:22:36;64158.53;;;-11.77;100.00
46614;BME280;32338;50.430;6.806;2022-12-18T04:25:04;64168.47;;;-11.67;100.00
46614;BME280;32338;50.430;6.806;2022-12-18T04:27:30;64164.06;;;-11.71;100.00
46614;BME280;32338;50.430;6.806;2022-12-18T04:29:57;64151.59;;;-11.81;100.00
46614;BME280;32338;50.430;6.806;2022-12-18T04:32:25;64147.72;;;-11.84;100.00
46614;BME280;32338;50.430;6.806;2022-12-18T04:34:52;64141.13;;;-11.91;100.00
46614;BME280;32338;50.430;6.806;2022-12-18T04:37:18;64133.22;;;-12.00;100.00
46614;BME280;32338;50.430;6.806;2022-12-18T04:39:45;64124.91;;;-12.08;100.00
46614;BME280;32338;50.430;6.806;2022-12-18T04:42:12;64120.19;;;-12.10;100.00
46614;BME280;32338;50.430;6.806;2022-12-18T04:44:38;64128.47;;;-12.02;100.00
46614;BME280;32338;50.430;6.806;2022-12-18T04:47:05;64142.78;;;-11.89;100.00
46614;BME280;32338;50.430;6.806;2022-12-18T04:49:34;64135.97;;;-11.98;100.00
46614;BME280;32338;50.430;6.806;2022-12-18T04:52:00;64132.31;;;-11.99;100.00
46614;BME280;32338;50.430;6.806;2022-12-18T04:54:27;64128.69;;;-12.00;100.00
46614;BME280;32338;50.430;6.806;2022-12-18T04:56:54;64126.81;;;-12.04;100.00
46614;BME280;32338;50.430;6.806;2022-12-18T04:59:20;64105.63;;;-12.26;100.00
46614;BME280;32338;50.430;6.806;2022-12-18T05:01:47;64100.66;;;-12.31;100.00
46614;BME280;32338;50.430;6.806;2022-12-18T05:04:14;64114.34;;;-12.13;100.00
46614;BME280;32338;50.430;6.806;2022-12-18T05:06:42;64129.34;;;-12.04;100.00
46614;BME280;32338;50.430;6.806;2022-12-18T05:09:08;64126.25;;;-12.04;100.00
46614;BME280;32338;50.430;6.806;2022-12-18T05:11:35;64126.03;;;-12.07;100.00
46614;BME280;32338;50.430;6.806;2022-12-18T05:14:02;64149.16;;;-11.85;100.00
46614;BME280;32338;50.430;6.806;2022-12-18T05:16:28;64202.03;;;-11.31;100.00
46614;BME280;32338;50.430;6.806;2022-12-18T05:18:55;64244.91;;;-10.98;100.00
46614;BME280;32338;50.430;6.806;2022-12-18T05:21:22;64281.56;;;-10.62;100.00
46614;BME280;32338;50.430;6.806;2022-12-18T05:23:50;64307.53;;;-10.37;100.00
46614;BME280;32338;50.430;6.806;2022-12-18T05:26:18;64325.19;;;-10.21;100.00
46614;BME280;32338;50.430;6.806;2022-12-18T05:28:45;64329.28;;;-10.15;100.00
46614;BME280;32338;50.430;6.806;2022-12-18T05:31:12;64316.03;;;-10.27;100.00
46614;BME280;32338;50.430;6.806;2022-12-18T05:33:39;64334.25;;;-10.10;100.00
46614;BME280;32338;50.430;6.806;2022-12-18T05:36:07;64325.28;;;-10.26;100.00
46614;BME280;32338;50.430;6.806;2022-12-18T05:38:35;64307.41;;;-10.33;100.00
46614;BME280;32338;50.430;6.806;2022-12-18T05:41:05;64295.94;;;-10.48;100.00
46614;BME280;32338;50.430;6.806;2022-12-18T05:43:33;64302.56;;;-10.42;100.00
46614;BME280;32338;50.430;6.806;2022-12-18T05:46:04;64375.22;;;-9.77;100.00
46614;BME280;32338;50.430;6.806;2022-12-18T05:48:30;64390.94;;;-9.59;100.00
46614;BME280;32338;50.430;6.806;2022-12-18T05:51:03;64437.91;;;-9.16;100.00
46614;BME280;32338;50.430;6.806;2022-12-18T05:53:31;64462.91;;;-8.97;100.00
46614;BME280;32338;50.430;6.806;2022-12-18T05:56:00;64479.94;;;-8.76;100.00
46614;BME280;32338;50.430;6.806;2022-12-18T05:58:28;64508.03;;;-8.45;100.00
46614;BME280;32338;50.430;6.806;2022-12-18T06:00:54;64556.19;;;-8.01;100.00
46614;BME280;32338;50.430;6.806;2022-12-18T06:03:21;64563.72;;;-7.96;100.00
46614;BME280;32338;50.430;6.806;2022-12-18T06:05:48;64563.38;;;-7.94;100.00
46614;BME280;32338;50.430;6.806;2022-12-18T06:08:14;64598.38;;;-7.66;100.00
46614;BME280;32338;50.430;6.806;2022-12-18T06:10:41;64616.00;;;-7.45;100.00
46614;BME280;32338;50.430;6.806;2022-12-18T06:13:08;64625.41;;;-7.36;100.00
46614;BME280;32338;50.430;6.806;2022-12-18T06:15:37;64650.00;;;-7.23;100.00
46614;BME280;32338;50.430;6.806;2022-12-18T06:18:05;64661.19;;;-7.05;100.00
46614;BME280;32338;50.430;6.806;2022-12-18T06:20:32;64666.41;;;-6.98;100.00
46614;BME280;32338;50.430;6.806;2022-12-18T06:22:59;64668.06;;;-6.96;100.00
46614;BME280;32338;50.430;6.806;2022-12-18T06:25:25;64678.16;;;-6.92;100.00
46614;BME280;32338;50.430;6.806;2022-12-18T06:27:52;64670.84;;;-6.94;100.00
46614;BME280;32338;50.430;6.806;2022-12-18T06:30:19;64675.84;;;-6.89;100.00
46614;BME280;32338;50.430;6.806;2022-12-18T06:32:47;64664.19;;;-7.00;100.00
46614;BME280;32338;50.430;6.806;2022-12-18T06:35:14;64663.63;;;-7.01;100.00
46614;BME280;32338;50.430;6.806;2022-12-18T06:37:41;64661.19;;;-7.05;100.00
46614;BME280;32338;50.430;6.806;2022-12-18T06:40:08;64660.88;;;-7.03;100.00
46614;BME280;32338;50.430;6.806;2022-12-18T06:42:35;64674.81;;;-6.95;100.00
46614;BME280;32338;50.430;6.806;2022-12-18T06:45:02;64657.66;;;-7.11;100.00
46614;BME280;32338;50.430;6.806;2022-12-18T06:47:28;64668.72;;;-7.01;100.00
46614;BME280;32338;50.430;6.806;2022-12-18T06:49:56;64654.00;;;-7.12;100.00
46614;BME280;32338;50.430;6.806;2022-12-18T06:52:23;64644.81;;;-7.18;100.00
46614;BME280;32338;50.430;6.806;2022-12-18T06:54:50;64646.47;;;-7.17;100.00
46614;BME280;32338;50.430;6.806;2022-12-18T06:57:16;64664.84;;;-7.04;100.00
46614;BME280;32338;50.430;6.806;2022-12-18T06:59:43;64660.09;;;-7.06;100.00
46614;BME280;32338;50.430;6.806;2022-12-18T07:02:11;64675.28;;;-6.90;100.00
46614;BME280;32338;50.430;6.806;2022-12-18T07:04:37;64676.50;;;-6.93;100.00
46614;BME280;32338;50.430;6.806;2022-12-18T07:07:05;64671.81;;;-7.00;100.00
46614;BME280;32338;50.430;6.806;2022-12-18T07:09:32;64698.13;;;-6.73;100.00
46614;BME280;32338;50.430;6.806;2022-12-18T07:11:59;64693.88;;;-6.75;100.00
46614;BME280;32338;50.430;6.806;2022-12-18T07:14:25;64697.31;;;-6.76;100.00
46614;BME280;32338;50.430;6.806;2022-12-18T07:16:52;64699.66;;;-6.67;100.00
46614;BME280;32338;50.430;6.806;2022-12-18T07:19:19;64708.88;;;-6.61;100.00
46614;BME280;32338;50.430;6.806;2022-12-18T07:21:52;64703.31;;;-6.66;100.00
46614;BME280;32338;50.430;6.806;2022-12-18T07:24:21;64707.97;;;-6.59;100.00
46614;BME280;32338;50.430;6.806;2022-12-18T07:26:47;64714.75;;;-6.58;100.00
46614;BME280;32338;50.430;6.806;2022-12-18T07:29:14;64703.66;;;-6.68;100.00
46614;BME280;32338;50.430;6.806;2022-12-18T07:31:41;64705.22;;;-6.62;100.00
46614;BME280;32338;50.430;6.806;2022-12-18T07:34:09;64703.66;;;-6.68;100.00
46614;BME280;32338;50.430;6.806;2022-12-18T07:36:36;64707.75;;;-6.62;100.00
46614;BME280;32338;50.430;6.806;2022-12-18T07:39:03;64719.97;;;-6.50;100.00
46614;BME280;32338;50.430;6.806;2022-12-18T07:41:31;64723.94;;;-6.52;100.00
46614;BME280;32338;50.430;6.806;2022-12-18T07:43:57;64727.25;;;-6.48;100.00
46614;BME280;32338;50.430;6.806;2022-12-18T07:46:24;64711.41;;;-6.61;100.00
46614;BME280;32338;50.430;6.806;2022-12-18T07:48:51;64708.66;;;-6.63;100.00
46614;BME280;32338;50.430;6.806;2022-12-18T07:51:18;64699.22;;;-6.72;100.00
46614;BME280;32338;50.430;6.806;2022-12-18T07:53:45;64702.53;;;-6.69;100.00
46614;BME280;32338;50.430;6.806;2022-12-18T07:56:12;64718.63;;;-6.54;100.00
46614;BME280;32338;50.430;6.806;2022-12-18T07:58:40;64728.03;;;-6.45;100.00
46614;BME280;32338;50.430;6.806;2022-12-18T08:01:08;64716.75;;;-6.58;100.00
46614;BME280;32338;50.430;6.806;2022-12-18T08:03:36;64714.41;;;-6.56;100.00
46614;BME280;32338;50.430;6.806;2022-12-18T08:06:06;64724.72;;;-6.48;100.00
46614;BME280;32338;50.430;6.806;2022-12-18T08:08:33;64710.53;;;-6.59;100.00
46614;BME280;32338;50.430;6.806;2022-12-18T08:11:01;64711.06;;;-6.59;100.00
46614;BME280;32338;50.430;6.806;2022-12-18T08:13:28;64745.56;;;-6.31;100.00
46614;BME280;32338;50.430;6.806;2022-12-18T08:15:57;64762.09;;;-6.11;100.00
46614;BME280;32338;50.430;6.806;2022-12-18T08:18:24;64778.72;;;-5.96;100.00
46614;BME280;32338;50.430;6.806;2022-12-18T08:20:51;64792.25;;;-5.81;100.00
46614;BME280;32338;50.430;6.806;2022-12-18T08:23:18;64794.25;;;-5.81;100.00
46614;BME280;32338;50.430;6.806;2022-12-18T08:25:44;64798.34;;;-5.75;100.00
46614;BME280;32338;50.430;6.806;2022-12-18T08:28:11;64800.91;;;-5.75;100.00
46614;BME280;32338;50.430;6.806;2022-12-18T08:30:38;64792.03;;;-5.83;100.00
46614;BME280;32338;50.430;6.806;2022-12-18T08:33:06;64795.38;;;-5.80;100.00
46614;BME280;32338;50.430;6.806;2022-12-18T08:35:35;64789.03;;;-5.89;100.00
46614;BME280;32338;50.430;6.806;2022-12-18T08:38:02;64775.59;;;-5.96;100.00
46614;BME280;32338;50.430;6.806;2022-12-18T08:40:29;64767.84;;;-6.04;100.00
46614;BME280;32338;50.430;6.806;2022-12-18T08:42:58;64775.97;;;-5.98;100.00
46614;BME280;32338;50.430;6.806;2022-12-18T08:45:42;64777.63;;;-5.97;100.00
46614;BME280;32338;50.430;6.806;2022-12-18T08:48:11;64794.25;;;-5.81;100.00
46614;BME280;32338;50.430;6.806;2022-12-18T08:50:38;64791.25;;;-5.87;100.00
46614;BME280;32338;50.430;6.806;2022-12-18T08:53:05;64803.69;;;-5.73;100.00
46614;BME280;32338;50.430;6.806;2022-12-18T08:55:34;64808.69;;;-5.68;100.00
46614;BME280;32338;50.430;6.806;2022-12-18T08:58:00;64816.47;;;-5.61;100.00
46614;BME280;32338;50.430;6.806;2022-12-18T09:00:27;64845.09;;;-5.37;100.00
46614;BME280;32338;50.430;6.806;2022-12-18T09:02:54;64846.41;;;-5.33;100.00
46614;BME280;32338;50.430;6.806;2022-12-18T09:05:22;64852.50;;;-5.27;100.00
46614;BME280;32338;50.430;6.806;2022-12-18T09:07:48;64864.19;;;-5.16;100.00
46614;BME280;32338;50.430;6.806;2022-12-18T09:10:15;64859.97;;;-5.18;100.00
46614;BME280;32338;50.430;6.806;2022-12-18T09:12:42;64862.84;;;-5.20;100.00
46614;BME280;32338;50.430;6.806;2022-12-18T09:15:09;64858.63;;;-5.22;100.00
46614;BME280;32338;50.430;6.806;2022-12-18T09:17:36;64851.97;;;-5.28;100.00
46614;BME280;32338;50.430;6.806;2022-12-18T09:20:03;64861.19;;;-5.22;100.00
46614;BME280;32338;50.430;6.806;2022-12-18T09:22:32;64862.31;;;-5.21;100.00
46614;BME280;32338;50.430;6.806;2022-12-18T09:24:58;64871.97;;;-5.09;100.00
46614;BME280;32338;50.430;6.806;2022-12-18T09:27:25;64868.97;;;-5.14;100.00
46614;BME280;32338;50.430;6.806;2022-12-18T09:29:52;64874.72;;;-5.07;100.00
46614;BME280;32338;50.430;6.806;2022-12-18T09:32:18;64879.16;;;-5.02;100.00
46614;BME280;32338;50.430;6.806;2022-12-18T09:34:45;64890.28;;;-4.92;100.00
46614;BME280;32338;50.430;6.806;2022-12-18T09:37:12;64906.72;;;-4.79;100.00
46614;BME280;32338;50.430;6.806;2022-12-18T09:39:40;64907.50;;;-4.76;100.00
46614;BME280;32338;50.430;6.806;2022-12-18T09:42:09;64909.72;;;-4.74;100.00
46614;BME280;32338;50.430;6.806;2022-12-18T09:44:43;64908.06;;;-4.76;100.00
46614;BME280;32338;50.430;6.806;2022-12-18T09:47:15;64917.16;;;-4.65;100.00
46614;BME280;32338;50.430;6.806;2022-12-18T09:49:45;64920.06;;;-4.67;100.00
46614;BME280;32338;50.430;6.806;2022-12-18T09:52:17;64921.38;;;-4.63;100.00
46614;BME280;32338;50.430;6.806;2022-12-18T09:54:50;64930.38;;;-4.60;100.00
46614;BME280;32338;50.430;6.806;2022-12-18T09:57:20;64929.94;;;-4.53;100.00
46614;BME280;32338;50.430;6.806;2022-12-18T09:59:51;64936.03;;;-4.47;100.00
46614;BME280;32338;50.430;6.806;2022-12-18T10:02:20;64932.72;;;-4.50;100.00
46614;BME280;32338;50.430;6.806;2022-12-18T10:04:56;64929.03;;;-4.51;100.00
46614;BME280;32338;50.430;6.806;2022-12-18T10:07:36;64943.03;;;-4.43;100.00
46614;BME280;32338;50.430;6.806;2022-12-18T10:10:10;64940.47;;;-4.43;100.00
46614;BME280;32338;50.430;6.806;2022-12-18T10:12:42;64951.03;;;-4.33;100.00
46614;BME280;32338;50.430;6.806;2022-12-18T10:15:16;64948.94;;;-4.40;100.00
46614;BME280;32338;50.430;6.806;2022-12-18T10:17:49;64960.41;;;-4.32;100.00
46614;BME280;32338;50.430;6.806;2022-12-18T10:20:24;64957.50;;;-4.30;100.00
46614;BME280;32338;50.430;6.806;2022-12-18T10:22:57;64965.50;;;-4.20;100.00
46614;BME280;32338;50.430;6.806;2022-12-18T10:25:33;64971.94;;;-4.16;100.00
46614;BME280;32338;50.430;6.806;2022-12-18T10:28:08;64969.94;;;-4.16;100.00
46614;BME280;32338;50.430;6.806;2022-12-18T10:30:38;64977.38;;;-4.07;100.00
46614;BME280;32338;50.430;6.806;2022-12-18T10:33:05;64983.84;;;-4.03;100.00
46614;BME280;32338;50.430;6.806;2022-12-18T10:35:32;64986.19;;;-4.05;100.00
46614;BME280;32338;50.430;6.806;2022-12-18T10:38:05;64987.50;;;-4.02;100.00
46614;BME280;32338;50.430;6.806;2022-12-18T10:40:48;64989.41;;;-3.98;100.00
46614;BME280;32338;50.430;6.806;2022-12-18T10:43:15;64997.19;;;-3.91;100.00
46614;BME280;32338;50.430;6.806;2022-12-18T10:45:58;64993.84;;;-3.94;100.00
46614;BME280;32338;50.430;6.806;2022-12-18T10:48:26;64999.06;;;-3.86;100.00
46614;BME280;32338;50.430;6.806;2022-12-18T10:50:54;64999.38;;;-3.88;100.00
46614;BME280;32338;50.430;6.806;2022-12-18T10:53:23;65021.75;;;-3.72;100.00
46614;BME280;32338;50.430;6.806;2022-12-18T10:55:53;65025.53;;;-3.64;100.00
46614;BME280;32338;50.430;6.806;2022-12-18T10:58:23;65036.22;;;-3.59;100.00
46614;BME280;32338;50.430;6.806;2022-12-18T11:01:07;65030.75;;;-3.57;100.00
46614;BME280;32338;50.430;6.806;2022-12-18T11:03:36;65033.66;;;-3.59;100.00
46614;BME280;32338;50.430;6.806;2022-12-18T11:06:05;65045.31;;;-3.48;100.00
46614;BME280;32338;50.430;6.806;2022-12-18T11:08:33;65052.91;;;-3.44;100.00
46614;BME280;32338;50.430;6.806;2022-12-18T11:11:01;65041.88;;;-3.47;100.00
46614;BME280;32338;50.430;6.806;2022-12-18T11:13:30;65040.88;;;-3.52;100.00
46614;BME280;32338;50.430;6.806;2022-12-18T11:15:57;65044.22;;;-3.49;100.00
46614;BME280;32338;50.430;6.806;2022-12-18T11:18:27;65042.75;;;-3.48;100.00
46614;BME280;32338;50.430;6.806;2022-12-18T11:20:56;65059.03;;;-3.38;100.00
46614;BME280;32338;50.430;6.806;2022-12-18T11:23:24;65051.44;;;-3.43;100.00
46614;BME280;32338;50.430;6.806;2022-12-18T11:25:54;65063.13;;;-3.32;100.00
46614;BME280;32338;50.430;6.806;2022-12-18T11:28:35;65068.13;;;-3.27;100.00
46614;BME280;32338;50.430;6.806;2022-12-18T11:31:21;65057.00;;;-3.37;100.00
46614;BME280;32338;50.430;6.806;2022-12-18T11:34:04;65040.19;;;-3.48;100.00
46614;BME280;32338;50.430;6.806;2022-12-18T11:36:38;65050.31;;;-3.44;100.00
46614;BME280;32338;50.430;6.806;2022-12-18T11:39:12;65046.44;;;-3.47;100.00
46614;BME280;32338;50.430;6.806;2022-12-18T11:41:47;65049.44;;;-3.42;100.00
46614;BME280;32338;50.430;6.806;2022-12-18T11:44:40;65046.44;;;-3.47;100.00
46614;BME280;32338;50.430;6.806;2022-12-18T11:47:13;65037.41;;;-3.51;100.00
46614;BME280;32338;50.430;6.806;2022-12-18T11:49:47;65045.09;;;-3.51;100.00
46614;BME280;32338;50.430;6.806;2022-12-18T11:52:18;65043.88;;;-3.47;100.00
46614;BME280;32338;50.430;6.806;2022-12-18T11:54:50;65055.66;;;-3.41;100.00
46614;BME280;32338;50.430;6.806;2022-12-18T11:57:25;65050.31;;;-3.44;100.00
46614;BME280;32338;50.430;6.806;2022-12-18T12:00:03;65045.00;;;-3.46;100.00
46614;BME280;32338;50.430;6.806;2022-12-18T12:02:47;65053.09;;;-3.41;100.00
46614;BME280;32338;50.430;6.806;2022-12-18T12:05:25;65044.44;;;-3.47;100.00
46614;BME280;32338;50.430;6.806;2022-12-18T12:08:00;65058.66;;;-3.36;100.00
46614;BME280;32338;50.430;6.806;2022-12-18T12:10:39;65056.09;;;-3.36;100.00
46614;BME280;32338;50.430;6.806;2022-12-18T12:13:23;65067.56;;;-3.28;100.00
46614;BME280;32338;50.430;6.806;2022-12-18T12:16:04;65070.91;;;-3.24;100.00
46614;BME280;32338;50.430;6.806;2022-12-18T12:18:43;65059.22;;;-3.35;100.00
46614;BME280;32338;50.430;6.806;2022-12-18T12:21:20;65051.78;;;-3.45;100.00
46614;BME280;32338;50.430;6.806;2022-12-18T12:23:53;65057.22;;;-3.35;100.00
46614;BME280;32338;50.430;6.806;2022-12-18T12:26:26;65063.13;;;-3.32;100.00
46614;BME280;32338;50.430;6.806;2022-12-18T12:29:01;65070.13;;;-3.28;100.00
46614;BME280;32338;50.430;6.806;2022-12-18T12:31:42;65085.38;;;-3.11;100.00
46614;BME280;32338;50.430;6.806;2022-12-18T12:34:19;65071.69;;;-3.21;100.00
46614;BME280;32338;50.430;6.806;2022-12-18T12:36:58;65069.78;;;-3.26;100.00
46614;BME280;32338;50.430;6.806;2022-12-18T12:39:31;65066.25;;;-3.31;100.00
46614;BME280;32338;50.430;6.806;2022-12-18T12:41:59;65063.47;;;-3.34;100.00
46614;BME280;32338;50.430;6.806;2022-12-18T12:44:49;65065.13;;;-3.32;100.00
46614;BME280;32338;50.430;6.806;2022-12-18T12:47:21;65053.91;;;-3.38;100.00
46614;BME280;32338;50.430;6.806;2022-12-18T12:49:50;65068.25;;;-3.32;100.00
46614;BME280;32338;50.430;6.806;2022-12-18T12:52:24;65055.34;;;-3.39;100.00
46614;BME280;32338;50.430;6.806;2022-12-18T12:54:54;65078.16;;;-3.18;100.00
46614;BME280;32338;50.430;6.806;2022-12-18T12:57:23;65069.47;;;-3.23;100.00
46614;BME280;32338;50.430;6.806;2022-12-18T12:59:58;65061.66;;;-3.31;100.00